sensor_id;sensor_type;location;lat;lon;timestamp;temperature;humidity
42905;DHT22;28550;51.228;4.528;2022-12-15T05:00:21;-5.70;56.10
42905;DHT22;28550;51.228;4.528;2022-12-15T07:00:20;-5.50;59.60
42905;DHT22;28550;51.228;4.528;2022-12-15T07:03:28;-5.50;59.00
42905;DHT22;28550;51.228;4.528;2022-12-15T07:06:30;-5.50;58.30
42905;DHT22;28550;51.228;4.528;2022-12-15T11:28:59;3.60;16.10
42905;DHT22;28550;51.228;4.528;2022-12-15T11:31:42;4.40;1.00
42905;DHT22;28550;51.228;4.528;2022-12-15T11:34:23;5.00;99.90
42905;DHT22;28550;51.228;4.528;2022-12-15T11:46:13;4.80;99.90
42905;DHT22;28550;51.228;4.528;2022-12-15T11:49:01;4.80;1.00
42905;DHT22;28550;51.228;4.528;2022-12-15T11:54:17;4.90;1.00
42905;DHT22;28550;51.228;4.528;2022-12-15T11:56:52;4.90;1.00
42905;DHT22;28550;51.228;4.528;2022-12-15T12:13:54;9.30;1.00
42905;DHT22;28550;51.228;4.528;2022-12-15T12:16:43;10.60;99.90
42905;DHT22;28550;51.228;4.528;2022-12-15T12:19:17;11.10;1.00
42905;DHT22;28550;51.228;4.528;2022-12-15T12:21:56;10.80;66.50
42905;DHT22;28550;51.228;4.528;2022-12-15T12:24:37;9.90;1.00
42905;DHT22;28550;51.228;4.528;2022-12-15T12:30:19;12.20;68.60
42905;DHT22;28550;51.228;4.528;2022-12-15T12:33:11;13.70;99.90
42905;DHT22;28550;51.228;4.528;2022-12-15T12:38:10;16.00;47.90
42905;DHT22;28550;51.228;4.528;2022-12-15T12:43:13;17.40;99.90
42905;DHT22;28550;51.228;4.528;2022-12-15T12:51:31;16.60;99.90
42905;DHT22;28550;51.228;4.528;2022-12-15T12:53:56;16.90;99.90
42905;DHT22;28550;51.228;4.528;2022-12-15T12:56:42;17.10;99.90
42905;DHT22;28550;51.228;4.528;2022-12-15T13:02:22;17.60;99.90
42905;DHT22;28550;51.228;4.528;2022-12-15T13:04:49;17.50;99.90
42905;DHT22;28550;51.228;4.528;2022-12-15T13:07:31;17.80;1.00
42905;DHT22;28550;51.228;4.528;2022-12-15T13:10:16;18.00;1.00
42905;DHT22;28550;51.228;4.528;2022-12-15T13:12:46;18.10;10.80
42905;DHT22;28550;51.228;4.528;2022-12-15T13:17:50;18.40;15.30
42905;DHT22;28550;51.228;4.528;2022-12-15T13:20:22;18.40;16.30
42905;DHT22;28550;51.228;4.528;2022-12-15T13:22:49;17.90;15.70
42905;DHT22;28550;51.228;4.528;2022-12-15T13:25:38;17.50;14.90
42905;DHT22;28550;51.228;4.528;2022-12-15T13:46:52;10.60;23.30
42905;DHT22;28550;51.228;4.528;2022-12-15T13:49:28;10.40;22.40
42905;DHT22;28550;51.228;4.528;2022-12-15T13:52:02;9.90;24.10
42905;DHT22;28550;51.228;4.528;2022-12-15T13:54:34;11.00;24.20
42905;DHT22;28550;51.228;4.528;2022-12-15T13:57:16;12.20;22.10
42905;DHT22;28550;51.228;4.528;2022-12-15T13:59:45;13.10;21.10
42905;DHT22;28550;51.228;4.528;2022-12-15T14:02:35;13.00;20.20
42905;DHT22;28550;51.228;4.528;2022-12-15T14:05:20;12.20;20.20
42905;DHT22;28550;51.228;4.528;2022-12-15T14:10:20;9.70;22.30
42905;DHT22;28550;51.228;4.528;2022-12-15T14:12:48;8.80;23.90
42905;DHT22;28550;51.228;4.528;2022-12-15T14:15:17;8.00;1.00
42905;DHT22;28550;51.228;4.528;2022-12-15T14:17:50;7.40;1.00
42905;DHT22;28550;51.228;4.528;2022-12-15T14:20:21;6.80;26.90
42905;DHT22;28550;51.228;4.528;2022-12-15T14:22:48;6.30;49.60
42905;DHT22;28550;51.228;4.528;2022-12-15T14:25:25;5.80;99.90
42905;DHT22;28550;51.228;4.528;2022-12-15T14:27:52;5.30;99.90
42905;DHT22;28550;51.228;4.528;2022-12-15T14:32:48;4.70;99.90
42905;DHT22;28550;51.228;4.528;2022-12-15T14:37:46;4.00;99.90
42905;DHT22;28550;51.228;4.528;2022-12-15T14:40:17;3.70;1.00
42905;DHT22;28550;51.228;4.528;2022-12-15T14:42:45;3.50;99.90
42905;DHT22;28550;51.228;4.528;2022-12-15T14:45:26;3.40;99.90
42905;DHT22;28550;51.228;4.528;2022-12-15T14:47:55;3.20;1.00
42905;DHT22;28550;51.228;4.528;2022-12-15T14:50:23;2.80;1.00
42905;DHT22;28550;51.228;4.528;2022-12-15T14:53:14;2.60;99.90
42905;DHT22;28550;51.228;4.528;2022-12-15T14:55:40;2.70;1.00
42905;DHT22;28550;51.228;4.528;2022-12-15T14:58:33;2.70;1.00
42905;DHT22;28550;51.228;4.528;2022-12-15T15:01:01;2.50;1.00
42905;DHT22;28550;51.228;4.528;2022-12-15T15:03:54;2.30;99.90
42905;DHT22;28550;51.228;4.528;2022-12-15T15:06:20;1.90;99.90
42905;DHT22;28550;51.228;4.528;2022-12-15T15:20:53;1.20;1.00
42905;DHT22;28550;51.228;4.528;2022-12-15T15:23:21;1.10;1.00
42905;DHT22;28550;51.228;4.528;2022-12-15T15:34:03;0.50;1.00
